createdAt,value
2023-02-03T00:02:21.481Z,6.15
2023-02-03T00:06:25.138Z,6.68
2023-02-03T00:10:28.656Z,7.32
2023-02-03T00:14:33.821Z,5.25
2023-02-03T00:18:39.323Z,5.55
2023-02-03T00:22:42.336Z,5.10
2023-02-03T00:26:45.198Z,5.60
2023-02-03T00:30:48.129Z,5.10
2023-02-03T00:34:52.684Z,5.30
2023-02-03T00:38:56.185Z,5.72
2023-02-03T00:42:59.337Z,4.43
2023-02-03T00:47:02.331Z,3.50
2023-02-03T00:51:07.564Z,6.20
2023-02-03T00:55:10.919Z,5.45
2023-02-03T00:59:14.084Z,3.17
2023-02-03T01:03:18.719Z,3.35
2023-02-03T01:07:23.386Z,6.55
2023-02-03T01:11:27.815Z,3.97
2023-02-03T01:15:30.897Z,5.03
2023-02-03T01:19:34.087Z,2.72
2023-02-03T01:23:39.528Z,2.97
2023-02-03T01:27:42.649Z,4.75
2023-02-03T01:31:48.563Z,4.75
2023-02-03T01:35:51.213Z,5.22
2023-02-03T01:39:55.553Z,3.58
2023-02-03T01:44:00.588Z,4.72
2023-02-03T01:48:03.369Z,4.78
2023-02-03T01:52:07.542Z,5.13
2023-02-03T01:56:13.539Z,4.22
2023-02-03T02:00:17.165Z,6.78
2023-02-03T02:04:21.205Z,4.65
2023-02-03T02:08:25.445Z,6.93
2023-02-03T02:12:30.034Z,4.05
2023-02-03T02:16:42.768Z,4.40
2023-02-03T02:21:35.895Z,6.32
2023-02-03T02:26:09.475Z,5.50
2023-02-03T02:30:50.908Z,5.35
2023-02-03T02:35:03.977Z,5.32
2023-02-03T02:39:16.876Z,2.55
2023-02-03T02:43:24.227Z,5.20
2023-02-03T02:47:27.469Z,6.32
2023-02-03T02:51:33.234Z,6.00
2023-02-03T02:55:41.204Z,6.75
2023-02-03T02:59:44.428Z,4.53
2023-02-03T03:03:47.993Z,1.80
2023-02-03T03:07:59.396Z,4.57
2023-02-03T03:12:09.410Z,6.20
2023-02-03T03:16:17.006Z,3.88
2023-02-03T03:20:26.370Z,5.78
2023-02-03T03:24:38.122Z,6.95
2023-02-03T03:28:48.573Z,6.07
2023-02-03T03:32:52.399Z,7.13
2023-02-03T03:41:10.181Z,2.55
2023-02-03T03:45:20.321Z,4.95
2023-02-03T03:49:26.089Z,4.13
2023-02-03T03:53:31.559Z,4.72
2023-02-03T03:57:41.136Z,4.80
2023-02-03T04:01:45.037Z,6.60
2023-02-03T04:09:51.335Z,7.05
2023-02-03T04:13:55.896Z,7.68
2023-02-03T04:17:59.063Z,11.68
2023-02-03T04:22:02.051Z,15.13
2023-02-03T04:26:05.082Z,5.50
2023-02-03T04:30:11.934Z,5.15
2023-02-03T04:34:14.950Z,5.40
2023-02-03T04:38:17.935Z,5.18
2023-02-03T04:42:21.193Z,7.30
2023-02-03T04:46:25.622Z,13.13
2023-02-03T04:50:36.988Z,5.00
2023-02-03T04:54:39.790Z,4.75
2023-02-03T04:58:45.659Z,14.80
2023-02-03T05:02:50.063Z,5.28
2023-02-03T05:06:53.316Z,6.63
2023-02-03T05:10:56.265Z,7.55
2023-02-03T05:14:59.133Z,6.40
2023-02-03T05:19:03.965Z,6.57
2023-02-03T05:23:06.922Z,5.95
2023-02-03T05:27:09.878Z,6.70
2023-02-03T05:31:12.869Z,6.50
2023-02-03T05:35:18.053Z,5.65
2023-02-03T05:39:21.018Z,5.72
2023-02-03T05:43:24.167Z,8.15
2023-02-03T05:47:30.495Z,4.95
2023-02-03T05:51:34.785Z,6.75
2023-02-03T05:55:38.278Z,6.95
2023-02-03T05:59:41.220Z,8.73
2023-02-03T06:03:46.165Z,4.80
2023-02-03T06:07:51.700Z,6.68
2023-02-03T06:11:54.927Z,5.22
2023-02-03T06:15:58.042Z,6.75
2023-02-03T06:20:01.089Z,9.35
2023-02-03T06:24:05.968Z,7.43
2023-02-03T06:28:09.155Z,6.97
2023-02-03T06:32:14.037Z,7.35
2023-02-03T06:36:16.926Z,7.00
2023-02-03T06:40:25.009Z,8.10
2023-02-03T06:44:28.477Z,7.35
2023-02-03T06:48:31.492Z,10.43
2023-02-03T06:52:34.495Z,7.90
2023-02-03T06:56:39.469Z,7.57
2023-02-03T07:00:42.606Z,8.68
2023-02-03T07:04:46.312Z,5.35
2023-02-03T07:08:49.256Z,4.75
2023-02-03T07:12:53.559Z,7.18
2023-02-03T07:16:56.519Z,5.25
2023-02-03T07:20:59.505Z,2.15
2023-02-03T07:25:02.072Z,5.85
2023-02-03T07:29:06.775Z,5.43
2023-02-03T07:33:15.052Z,5.35
2023-02-03T07:37:18.114Z,4.85
2023-02-03T07:41:21.337Z,5.88
2023-02-03T07:45:28.147Z,5.97
2023-02-03T07:49:32.001Z,7.57
2023-02-03T07:53:35.550Z,6.10
2023-02-03T07:57:43.655Z,2.28
2023-02-03T08:01:49.601Z,6.32
2023-02-03T08:05:53.667Z,5.22
2023-02-03T08:09:56.998Z,5.30
2023-02-03T08:14:00.558Z,4.45
2023-02-03T08:18:09.474Z,8.88
2023-02-03T08:22:16.293Z,8.32
2023-02-03T08:26:44.275Z,6.35
2023-02-03T08:30:50.685Z,5.70
2023-02-03T08:34:56.192Z,4.97
2023-02-03T08:38:59.541Z,7.47
2023-02-03T08:43:02.518Z,6.43
2023-02-03T08:47:05.715Z,6.97
2023-02-03T08:51:13.152Z,4.57
2023-02-03T08:55:15.935Z,6.22
2023-02-03T08:59:19.804Z,5.90
2023-02-03T09:03:22.929Z,5.50
2023-02-03T09:07:28.255Z,4.75
2023-02-03T09:11:31.041Z,4.70
2023-02-03T09:15:36.696Z,5.40
2023-02-03T09:19:40.210Z,3.75
2023-02-03T09:23:46.531Z,3.92
2023-02-03T09:27:49.458Z,6.63
2023-02-03T09:31:55.693Z,4.63
2023-02-03T09:35:59.803Z,4.30
2023-02-03T09:40:04.367Z,3.38
2023-02-03T09:44:15.821Z,4.60
2023-02-03T09:48:25.307Z,2.63
2023-02-03T09:52:32.663Z,4.88
2023-02-03T09:56:38.358Z,5.57
2023-02-03T10:00:44.864Z,4.00
2023-02-03T10:04:58.677Z,3.10
2023-02-03T10:09:24.601Z,5.38
2023-02-03T10:13:41.771Z,4.03
2023-02-03T10:17:50.116Z,3.38
2023-02-03T10:21:59.027Z,5.07
2023-02-03T10:26:07.022Z,3.22
2023-02-03T10:30:21.766Z,4.22
2023-02-03T10:34:27.084Z,5.60
2023-02-03T10:38:42.530Z,3.53
2023-02-03T10:43:06.069Z,4.18
2023-02-03T10:47:29.550Z,5.00
2023-02-03T10:51:38.836Z,3.53
2023-02-03T10:55:45.730Z,2.40
2023-02-03T10:59:50.573Z,3.72
2023-02-03T11:04:04.170Z,6.43
2023-02-03T11:08:16.306Z,2.92
2023-02-03T11:12:21.232Z,4.38
2023-02-03T11:16:25.940Z,5.07
2023-02-03T11:20:33.783Z,7.15
2023-02-03T11:24:41.711Z,4.80
2023-02-03T11:28:50.332Z,4.38
2023-02-03T11:32:54.046Z,5.93
2023-02-03T11:37:12.129Z,4.53
2023-02-03T11:41:23.050Z,7.30
2023-02-03T11:45:28.822Z,5.35
2023-02-03T11:49:51.693Z,3.85
2023-02-03T11:54:07.922Z,4.15
2023-02-03T11:58:41.127Z,4.88
2023-02-03T12:03:19.274Z,5.18
2023-02-03T12:07:52.587Z,6.45
2023-02-03T12:12:25.941Z,6.72
2023-02-03T12:16:50.101Z,3.13
2023-02-03T12:21:05.589Z,5.85
2023-02-03T12:25:19.817Z,4.45
2023-02-03T12:29:32.043Z,4.47
2023-02-03T12:33:43.204Z,5.50
2023-02-03T12:37:51.501Z,6.43
2023-02-03T12:42:02.933Z,5.63
2023-02-03T12:46:16.317Z,6.53
2023-02-03T12:50:23.498Z,7.15
2023-02-03T12:54:36.338Z,7.70
2023-02-03T12:58:42.722Z,5.82
2023-02-03T13:03:00.504Z,9.80
2023-02-03T13:07:14.379Z,10.55
2023-02-03T13:11:24.968Z,9.70
2023-02-03T13:15:32.741Z,7.78
2023-02-03T13:19:42.569Z,9.13
2023-02-03T13:23:48.314Z,5.70
2023-02-03T13:28:00.703Z,8.30
2023-02-03T13:32:15.945Z,10.13
2023-02-03T13:36:45.519Z,8.63
2023-02-03T13:40:59.319Z,11.23
2023-02-03T13:45:14.842Z,16.67
2023-02-03T13:49:25.867Z,12.77
2023-02-03T13:53:36.609Z,7.40
2023-02-03T13:57:40.382Z,7.75
2023-02-03T14:01:44.776Z,11.57
2023-02-03T14:05:51.131Z,6.28
2023-02-03T14:10:22.175Z,12.15
2023-02-03T14:14:59.013Z,8.73
2023-02-03T14:19:01.876Z,3.45
2023-02-03T14:23:12.586Z,8.02
2023-02-03T14:27:22.919Z,12.05
2023-02-03T14:31:29.011Z,8.90
2023-02-03T14:35:35.128Z,7.13
2023-02-03T14:39:59.703Z,10.48
2023-02-03T14:44:11.132Z,7.15
2023-02-03T14:48:30.197Z,8.38
2023-02-03T14:52:54.750Z,7.70
2023-02-03T14:57:19.909Z,6.63
2023-02-03T15:01:48.664Z,5.40
2023-02-03T15:05:54.068Z,8.38
2023-02-03T15:09:59.271Z,9.20
2023-02-03T15:14:21.866Z,8.57
2023-02-03T15:18:32.037Z,7.63
2023-02-03T15:26:48.847Z,5.18
2023-02-03T15:30:58.553Z,11.73
2023-02-03T15:35:06.433Z,8.70
2023-02-03T15:39:23.296Z,14.02
2023-02-03T15:43:34.344Z,10.23
2023-02-03T15:47:42.094Z,9.43
2023-02-03T15:51:51.393Z,8.35
2023-02-03T15:56:00.166Z,11.38
2023-02-03T16:00:10.164Z,12.20
2023-02-03T16:08:35.904Z,12.82
2023-02-03T16:12:42.882Z,17.08
2023-02-03T16:17:04.465Z,12.18
2023-02-03T16:21:08.561Z,11.07
2023-02-03T16:25:20.989Z,13.07
2023-02-03T16:29:48.332Z,13.50
2023-02-03T16:34:09.619Z,15.93
2023-02-03T16:38:35.333Z,8.73
2023-02-03T16:42:59.020Z,10.82
2023-02-03T16:47:20.826Z,12.55
2023-02-03T16:51:23.931Z,6.97
2023-02-03T16:55:27.685Z,12.48
2023-02-03T16:59:35.917Z,9.95
2023-02-03T17:03:40.456Z,9.65
2023-02-03T17:07:43.474Z,9.35
2023-02-03T17:11:46.667Z,10.70
2023-02-03T17:15:53.969Z,9.02
2023-02-03T17:19:57.334Z,16.65
2023-02-03T17:24:02.669Z,7.90
2023-02-03T17:28:06.211Z,7.35
2023-02-03T17:32:15.286Z,11.52
2023-02-03T17:36:21.904Z,9.95
2023-02-03T17:53:27.535Z,10.05
2023-02-03T17:57:34.554Z,20.38
2023-02-03T18:01:39.276Z,15.95
2023-02-03T18:05:51.816Z,14.50
2023-02-03T18:10:00.635Z,14.15
2023-02-03T18:14:05.385Z,13.90
2023-02-03T18:18:08.458Z,14.55
2023-02-03T18:22:12.853Z,15.00
2023-02-03T18:26:16.028Z,14.98
2023-02-03T18:30:21.943Z,18.13
2023-02-03T18:34:25.949Z,18.45
2023-02-03T18:38:33.261Z,14.93
2023-02-03T18:42:36.877Z,17.98
2023-02-03T18:46:40.402Z,16.75
2023-02-03T18:50:45.040Z,16.08
2023-02-03T18:54:49.744Z,16.38
2023-02-03T18:58:53.186Z,18.00
2023-02-03T19:03:06.203Z,23.33
2023-02-03T19:07:09.581Z,21.13
2023-02-03T19:11:15.463Z,21.63
2023-02-03T19:15:20.774Z,17.25
2023-02-03T19:19:24.084Z,16.98
2023-02-03T19:23:27.461Z,21.02
2023-02-03T19:27:32.844Z,28.83
2023-02-03T19:31:36.996Z,20.77
2023-02-03T19:35:40.236Z,22.77
2023-02-03T19:39:47.038Z,22.90
2023-02-03T19:43:52.361Z,16.08
2023-02-03T19:47:55.582Z,20.15
2023-02-03T19:51:59.016Z,20.25
2023-02-03T19:56:02.226Z,12.38
2023-02-03T20:00:08.929Z,19.88
2023-02-03T20:04:15.906Z,16.67
2023-02-03T20:08:27.967Z,19.75
2023-02-03T20:12:51.255Z,24.23
2023-02-03T20:16:59.292Z,10.98
2023-02-03T20:21:07.334Z,16.80
2023-02-03T20:25:19.659Z,19.92
2023-02-03T20:29:25.811Z,19.75
2023-02-03T20:33:32.096Z,24.30
2023-02-03T20:37:36.346Z,19.00
2023-02-03T20:41:41.139Z,14.52
2023-02-03T20:45:44.608Z,19.58
2023-02-03T20:49:50.046Z,18.88
2023-02-03T20:53:53.622Z,12.63
2023-02-03T20:57:57.229Z,16.60
2023-02-03T21:02:08.491Z,20.00
2023-02-03T21:06:17.670Z,20.83
2023-02-03T21:10:22.423Z,25.90
2023-02-03T21:14:30.659Z,22.48
2023-02-03T21:18:41.269Z,24.13
2023-02-03T21:22:45.960Z,26.77
2023-02-03T21:26:49.808Z,24.55
2023-02-03T21:30:52.768Z,32.83
2023-02-03T21:34:56.810Z,33.65
2023-02-03T21:39:01.615Z,32.22
2023-02-03T21:43:04.878Z,29.27
2023-02-03T21:47:13.293Z,10.45
2023-02-03T21:51:19.288Z,19.17
2023-02-03T21:55:23.993Z,32.13
2023-02-03T21:59:42.471Z,37.35
2023-02-03T22:03:48.785Z,26.90
2023-02-03T22:07:51.860Z,31.60
2023-02-03T22:11:56.598Z,26.83
2023-02-03T22:16:00.306Z,26.30
2023-02-03T22:20:05.387Z,28.20
2023-02-03T22:24:08.702Z,20.20
2023-02-03T22:28:15.796Z,15.30
2023-02-03T22:32:20.947Z,28.30
2023-02-03T22:36:24.301Z,27.95
2023-02-03T22:40:28.324Z,27.00
2023-02-03T22:44:35.335Z,18.95
2023-02-03T22:48:38.414Z,24.83
2023-02-03T22:52:42.116Z,21.73
2023-02-03T22:56:44.949Z,21.88
2023-02-03T23:00:49.590Z,20.67
2023-02-03T23:04:52.958Z,20.92
2023-02-03T23:08:57.096Z,23.88
2023-02-03T23:13:01.855Z,17.65
2023-02-03T23:17:06.404Z,22.95
2023-02-03T23:21:09.688Z,20.63
2023-02-03T23:25:14.013Z,10.73
2023-02-03T23:29:17.441Z,19.02
2023-02-03T23:33:22.852Z,18.77
2023-02-03T23:37:26.406Z,25.52
2023-02-03T23:41:29.288Z,19.80
2023-02-03T23:45:32.560Z,21.23
2023-02-03T23:49:37.185Z,20.30
2023-02-03T23:53:40.946Z,16.75
2023-02-03T23:57:44.891Z,15.82
